Clarks Hill, Indiana
Current Conditions -  °F | °C
As of 11:35 AM on Monday 24 Nov 2014 (Local Time) from KFKR Reporting Station
Overcast Overcast  
Wind Chill: 24°   Ceiling: 1500
Heat Index: 37°   Visibility: 10mi
Dew Point: 37°   Wind: 31mph
Humidity: 100%   Direction: 230°SW
Pressure: 29.48"   Gusts: 45mph
Location:  40.25°N, 86.73°W
Report Text: KFKR 241635Z AUTO 23027G39KT 10SM OVC015 03/03 A2948 RMK AO2 T00250025
Loading
Personal Weather Stations






























Interactive Weather Map New forecast layout! Learn more

10-Day Weather Forecast

Advertisements
Track Severe Weather on mobile